sensor_id;sensor_type;location;lat;lon;timestamp;temperature;humidity
21522;DHT22;10922;45.572;10.002;2023-04-25T00:01:11;12.50;1.00
21522;DHT22;10922;45.572;10.002;2023-04-25T00:03:39;12.40;1.00
21522;DHT22;10922;45.572;10.002;2023-04-25T00:06:06;12.40;1.00
21522;DHT22;10922;45.572;10.002;2023-04-25T00:08:32;12.40;1.00
21522;DHT22;10922;45.572;10.002;2023-04-25T00:10:58;12.30;1.00
21522;DHT22;10922;45.572;10.002;2023-04-25T00:13:24;12.30;1.00
21522;DHT22;10922;45.572;10.002;2023-04-25T00:15:51;12.30;1.00
21522;DHT22;10922;45.572;10.002;2023-04-25T00:18:18;12.20;1.00
21522;DHT22;10922;45.572;10.002;2023-04-25T00:20:44;12.20;1.00
21522;DHT22;10922;45.572;10.002;2023-04-25T00:23:16;12.20;1.00
21522;DHT22;10922;45.572;10.002;2023-04-25T00:25:48;12.20;1.00
21522;DHT22;10922;45.572;10.002;2023-04-25T00:28:14;12.20;1.00
21522;DHT22;10922;45.572;10.002;2023-04-25T00:30:40;12.10;1.00
21522;DHT22;10922;45.572;10.002;2023-04-25T00:33:06;12.10;1.00
21522;DHT22;10922;45.572;10.002;2023-04-25T00:35:33;12.10;1.00
21522;DHT22;10922;45.572;10.002;2023-04-25T00:37:59;12.00;1.00
21522;DHT22;10922;45.572;10.002;2023-04-25T00:40:24;12.00;1.00
21522;DHT22;10922;45.572;10.002;2023-04-25T00:42:52;12.10;1.00
21522;DHT22;10922;45.572;10.002;2023-04-25T00:45:18;12.10;1.00
21522;DHT22;10922;45.572;10.002;2023-04-25T00:47:44;12.20;1.00
21522;DHT22;10922;45.572;10.002;2023-04-25T00:50:11;12.20;1.00
21522;DHT22;10922;45.572;10.002;2023-04-25T00:52:39;12.20;1.00
21522;DHT22;10922;45.572;10.002;2023-04-25T00:55:06;12.30;1.00
21522;DHT22;10922;45.572;10.002;2023-04-25T00:57:32;12.40;1.00
21522;DHT22;10922;45.572;10.002;2023-04-25T00:59:58;12.50;1.00
21522;DHT22;10922;45.572;10.002;2023-04-25T01:02:24;12.50;1.00
21522;DHT22;10922;45.572;10.002;2023-04-25T01:04:51;12.50;1.00
21522;DHT22;10922;45.572;10.002;2023-04-25T01:07:16;12.50;1.00
21522;DHT22;10922;45.572;10.002;2023-04-25T01:09:42;12.50;1.00
21522;DHT22;10922;45.572;10.002;2023-04-25T01:12:08;12.50;1.00
21522;DHT22;10922;45.572;10.002;2023-04-25T01:14:34;12.40;1.00
21522;DHT22;10922;45.572;10.002;2023-04-25T01:16:59;12.40;1.00
21522;DHT22;10922;45.572;10.002;2023-04-25T01:19:25;12.40;1.00
21522;DHT22;10922;45.572;10.002;2023-04-25T01:21:51;12.40;1.00
21522;DHT22;10922;45.572;10.002;2023-04-25T01:24:17;12.50;1.00
21522;DHT22;10922;45.572;10.002;2023-04-25T01:26:43;12.50;1.00
21522;DHT22;10922;45.572;10.002;2023-04-25T01:29:18;12.50;1.00
21522;DHT22;10922;45.572;10.002;2023-04-25T01:31:44;12.60;1.00
21522;DHT22;10922;45.572;10.002;2023-04-25T01:34:11;12.70;1.00
21522;DHT22;10922;45.572;10.002;2023-04-25T01:36:37;12.80;1.00
21522;DHT22;10922;45.572;10.002;2023-04-25T01:39:03;12.70;1.00
21522;DHT22;10922;45.572;10.002;2023-04-25T01:41:28;12.70;1.00
21522;DHT22;10922;45.572;10.002;2023-04-25T01:43:55;12.80;1.00
21522;DHT22;10922;45.572;10.002;2023-04-25T01:46:20;12.90;1.00
21522;DHT22;10922;45.572;10.002;2023-04-25T01:48:47;12.90;1.00
21522;DHT22;10922;45.572;10.002;2023-04-25T01:51:13;13.00;1.00
21522;DHT22;10922;45.572;10.002;2023-04-25T01:53:39;13.00;1.00
21522;DHT22;10922;45.572;10.002;2023-04-25T01:56:05;13.00;1.00
21522;DHT22;10922;45.572;10.002;2023-04-25T01:58:31;13.00;1.00
21522;DHT22;10922;45.572;10.002;2023-04-25T02:00:57;13.00;1.00
21522;DHT22;10922;45.572;10.002;2023-04-25T02:03:22;12.90;1.00
21522;DHT22;10922;45.572;10.002;2023-04-25T02:05:48;12.90;1.00
21522;DHT22;10922;45.572;10.002;2023-04-25T02:08:16;12.90;1.00
21522;DHT22;10922;45.572;10.002;2023-04-25T02:10:41;12.90;1.00
21522;DHT22;10922;45.572;10.002;2023-04-25T02:13:07;12.80;1.00
21522;DHT22;10922;45.572;10.002;2023-04-25T02:15:33;12.70;1.00
21522;DHT22;10922;45.572;10.002;2023-04-25T02:17:58;12.60;1.00
21522;DHT22;10922;45.572;10.002;2023-04-25T02:20:25;12.50;1.00
21522;DHT22;10922;45.572;10.002;2023-04-25T02:22:51;12.50;1.00
21522;DHT22;10922;45.572;10.002;2023-04-25T02:25:20;12.40;1.00
21522;DHT22;10922;45.572;10.002;2023-04-25T02:27:47;12.30;1.00
21522;DHT22;10922;45.572;10.002;2023-04-25T02:30:13;12.30;1.00
21522;DHT22;10922;45.572;10.002;2023-04-25T02:32:39;12.40;1.00
21522;DHT22;10922;45.572;10.002;2023-04-25T02:35:06;12.50;1.00
21522;DHT22;10922;45.572;10.002;2023-04-25T02:37:36;12.60;1.00
21522;DHT22;10922;45.572;10.002;2023-04-25T02:40:03;12.70;1.00
21522;DHT22;10922;45.572;10.002;2023-04-25T02:42:30;12.80;1.00
21522;DHT22;10922;45.572;10.002;2023-04-25T02:44:56;12.90;1.00
21522;DHT22;10922;45.572;10.002;2023-04-25T02:47:21;13.00;1.00
21522;DHT22;10922;45.572;10.002;2023-04-25T02:49:47;13.10;1.00
21522;DHT22;10922;45.572;10.002;2023-04-25T02:52:13;13.10;1.00
21522;DHT22;10922;45.572;10.002;2023-04-25T02:54:39;13.10;1.00
21522;DHT22;10922;45.572;10.002;2023-04-25T02:57:05;13.00;1.00
21522;DHT22;10922;45.572;10.002;2023-04-25T02:59:31;13.00;1.00
21522;DHT22;10922;45.572;10.002;2023-04-25T03:01:57;13.00;1.00
21522;DHT22;10922;45.572;10.002;2023-04-25T03:04:22;13.00;1.00
21522;DHT22;10922;45.572;10.002;2023-04-25T03:06:50;13.00;1.00
21522;DHT22;10922;45.572;10.002;2023-04-25T03:09:16;13.00;1.00
21522;DHT22;10922;45.572;10.002;2023-04-25T03:11:42;12.90;1.00
21522;DHT22;10922;45.572;10.002;2023-04-25T03:14:07;12.80;1.00
21522;DHT22;10922;45.572;10.002;2023-04-25T03:16:33;12.70;1.00
21522;DHT22;10922;45.572;10.002;2023-04-25T03:18:59;12.70;1.00
21522;DHT22;10922;45.572;10.002;2023-04-25T03:21:25;12.70;1.00
21522;DHT22;10922;45.572;10.002;2023-04-25T03:23:51;12.70;1.00
21522;DHT22;10922;45.572;10.002;2023-04-25T03:26:17;12.70;1.00
21522;DHT22;10922;45.572;10.002;2023-04-25T03:28:43;12.70;1.00
21522;DHT22;10922;45.572;10.002;2023-04-25T03:31:08;12.80;1.00
21522;DHT22;10922;45.572;10.002;2023-04-25T03:33:34;12.70;1.00
21522;DHT22;10922;45.572;10.002;2023-04-25T03:36:00;12.60;1.00
21522;DHT22;10922;45.572;10.002;2023-04-25T03:38:25;12.30;1.00
21522;DHT22;10922;45.572;10.002;2023-04-25T03:40:53;12.20;1.00
21522;DHT22;10922;45.572;10.002;2023-04-25T03:43:19;12.20;1.00
21522;DHT22;10922;45.572;10.002;2023-04-25T03:45:45;12.10;1.00
21522;DHT22;10922;45.572;10.002;2023-04-25T03:48:11;12.10;1.00
21522;DHT22;10922;45.572;10.002;2023-04-25T03:50:37;12.00;1.00
21522;DHT22;10922;45.572;10.002;2023-04-25T03:53:02;12.00;1.00
21522;DHT22;10922;45.572;10.002;2023-04-25T03:55:28;11.90;1.00
21522;DHT22;10922;45.572;10.002;2023-04-25T03:57:53;11.80;1.00
21522;DHT22;10922;45.572;10.002;2023-04-25T04:00:19;11.70;1.00
21522;DHT22;10922;45.572;10.002;2023-04-25T04:02:45;11.70;1.00
21522;DHT22;10922;45.572;10.002;2023-04-25T04:05:10;11.70;1.00
21522;DHT22;10922;45.572;10.002;2023-04-25T04:07:36;11.70;1.00
21522;DHT22;10922;45.572;10.002;2023-04-25T04:10:09;11.60;1.00
21522;DHT22;10922;45.572;10.002;2023-04-25T04:12:36;11.60;1.00
21522;DHT22;10922;45.572;10.002;2023-04-25T04:15:05;11.60;1.00
21522;DHT22;10922;45.572;10.002;2023-04-25T04:17:32;11.50;1.00
21522;DHT22;10922;45.572;10.002;2023-04-25T04:19:57;11.40;1.00
21522;DHT22;10922;45.572;10.002;2023-04-25T04:22:24;11.40;1.00
21522;DHT22;10922;45.572;10.002;2023-04-25T04:24:50;11.40;1.00
21522;DHT22;10922;45.572;10.002;2023-04-25T04:27:19;11.50;1.00
21522;DHT22;10922;45.572;10.002;2023-04-25T04:29:45;11.50;1.00
21522;DHT22;10922;45.572;10.002;2023-04-25T04:32:12;11.40;1.00
21522;DHT22;10922;45.572;10.002;2023-04-25T04:34:38;11.40;1.00
21522;DHT22;10922;45.572;10.002;2023-04-25T04:37:04;11.40;1.00
21522;DHT22;10922;45.572;10.002;2023-04-25T04:39:31;11.40;1.00
21522;DHT22;10922;45.572;10.002;2023-04-25T04:41:56;11.40;1.00
21522;DHT22;10922;45.572;10.002;2023-04-25T04:44:22;11.40;1.00
21522;DHT22;10922;45.572;10.002;2023-04-25T04:46:48;11.40;1.00
21522;DHT22;10922;45.572;10.002;2023-04-25T04:49:13;11.40;1.00
21522;DHT22;10922;45.572;10.002;2023-04-25T04:51:39;11.50;1.00
21522;DHT22;10922;45.572;10.002;2023-04-25T04:54:09;11.50;1.00
21522;DHT22;10922;45.572;10.002;2023-04-25T04:56:35;11.50;1.00
21522;DHT22;10922;45.572;10.002;2023-04-25T04:59:01;11.60;1.00
21522;DHT22;10922;45.572;10.002;2023-04-25T05:01:28;11.60;1.00
21522;DHT22;10922;45.572;10.002;2023-04-25T05:03:55;11.50;1.00
21522;DHT22;10922;45.572;10.002;2023-04-25T05:06:29;11.40;1.00
21522;DHT22;10922;45.572;10.002;2023-04-25T05:08:55;11.40;1.00
21522;DHT22;10922;45.572;10.002;2023-04-25T05:11:22;11.40;1.00
21522;DHT22;10922;45.572;10.002;2023-04-25T05:13:49;11.30;1.00
21522;DHT22;10922;45.572;10.002;2023-04-25T05:16:14;11.20;1.00
21522;DHT22;10922;45.572;10.002;2023-04-25T05:18:40;11.30;1.00
21522;DHT22;10922;45.572;10.002;2023-04-25T05:21:06;11.40;1.00
21522;DHT22;10922;45.572;10.002;2023-04-25T05:23:32;11.60;1.00
21522;DHT22;10922;45.572;10.002;2023-04-25T05:25:58;11.60;1.00
21522;DHT22;10922;45.572;10.002;2023-04-25T05:28:24;11.60;1.00
21522;DHT22;10922;45.572;10.002;2023-04-25T05:30:50;11.70;1.00
21522;DHT22;10922;45.572;10.002;2023-04-25T05:33:16;11.60;1.00
21522;DHT22;10922;45.572;10.002;2023-04-25T05:35:42;11.60;1.00
21522;DHT22;10922;45.572;10.002;2023-04-25T05:38:07;11.60;1.00
21522;DHT22;10922;45.572;10.002;2023-04-25T05:40:33;11.50;1.00
21522;DHT22;10922;45.572;10.002;2023-04-25T05:42:59;11.50;1.00
21522;DHT22;10922;45.572;10.002;2023-04-25T05:45:25;11.40;1.00
21522;DHT22;10922;45.572;10.002;2023-04-25T05:47:50;11.30;1.00
21522;DHT22;10922;45.572;10.002;2023-04-25T05:50:17;11.30;1.00
21522;DHT22;10922;45.572;10.002;2023-04-25T05:52:44;11.20;1.00
21522;DHT22;10922;45.572;10.002;2023-04-25T05:55:10;11.20;1.00
21522;DHT22;10922;45.572;10.002;2023-04-25T05:57:36;11.20;1.00
21522;DHT22;10922;45.572;10.002;2023-04-25T06:00:01;11.10;1.00
21522;DHT22;10922;45.572;10.002;2023-04-25T06:02:27;11.10;1.00
21522;DHT22;10922;45.572;10.002;2023-04-25T06:04:53;11.10;1.00
21522;DHT22;10922;45.572;10.002;2023-04-25T06:07:21;11.10;1.00
21522;DHT22;10922;45.572;10.002;2023-04-25T06:09:47;11.00;1.00
21522;DHT22;10922;45.572;10.002;2023-04-25T06:12:13;11.10;1.00
21522;DHT22;10922;45.572;10.002;2023-04-25T06:14:38;11.20;1.00
21522;DHT22;10922;45.572;10.002;2023-04-25T06:17:04;11.30;1.00
21522;DHT22;10922;45.572;10.002;2023-04-25T06:19:34;11.40;1.00
21522;DHT22;10922;45.572;10.002;2023-04-25T06:22:01;11.70;1.00
21522;DHT22;10922;45.572;10.002;2023-04-25T06:24:27;11.90;1.00
21522;DHT22;10922;45.572;10.002;2023-04-25T06:26:53;12.00;1.00
21522;DHT22;10922;45.572;10.002;2023-04-25T06:29:20;12.20;1.00
21522;DHT22;10922;45.572;10.002;2023-04-25T06:31:46;12.20;1.00
21522;DHT22;10922;45.572;10.002;2023-04-25T06:34:11;12.30;1.00
21522;DHT22;10922;45.572;10.002;2023-04-25T06:36:37;12.40;1.00
21522;DHT22;10922;45.572;10.002;2023-04-25T06:39:03;12.40;1.00
21522;DHT22;10922;45.572;10.002;2023-04-25T06:41:28;12.50;1.00
21522;DHT22;10922;45.572;10.002;2023-04-25T06:43:54;12.50;1.00
21522;DHT22;10922;45.572;10.002;2023-04-25T06:46:20;12.60;1.00
21522;DHT22;10922;45.572;10.002;2023-04-25T06:48:45;12.80;1.00
21522;DHT22;10922;45.572;10.002;2023-04-25T06:51:11;12.90;1.00
21522;DHT22;10922;45.572;10.002;2023-04-25T06:53:39;12.90;1.00
21522;DHT22;10922;45.572;10.002;2023-04-25T06:56:05;13.10;1.00
21522;DHT22;10922;45.572;10.002;2023-04-25T06:58:30;13.10;1.00
21522;DHT22;10922;45.572;10.002;2023-04-25T07:00:56;13.20;1.00
21522;DHT22;10922;45.572;10.002;2023-04-25T07:03:22;13.30;1.00
21522;DHT22;10922;45.572;10.002;2023-04-25T07:05:47;13.40;1.00
21522;DHT22;10922;45.572;10.002;2023-04-25T07:08:13;13.60;1.00
21522;DHT22;10922;45.572;10.002;2023-04-25T07:10:46;13.70;1.00
21522;DHT22;10922;45.572;10.002;2023-04-25T07:13:12;13.80;1.00
21522;DHT22;10922;45.572;10.002;2023-04-25T07:15:38;13.80;1.00
21522;DHT22;10922;45.572;10.002;2023-04-25T07:18:03;13.70;1.00
21522;DHT22;10922;45.572;10.002;2023-04-25T07:20:29;13.70;1.00
21522;DHT22;10922;45.572;10.002;2023-04-25T07:22:56;13.80;1.00
21522;DHT22;10922;45.572;10.002;2023-04-25T07:25:22;13.90;1.00
21522;DHT22;10922;45.572;10.002;2023-04-25T07:27:48;13.80;1.00
21522;DHT22;10922;45.572;10.002;2023-04-25T07:30:14;13.80;1.00
21522;DHT22;10922;45.572;10.002;2023-04-25T07:32:39;13.90;1.00
21522;DHT22;10922;45.572;10.002;2023-04-25T07:35:06;13.90;1.00
21522;DHT22;10922;45.572;10.002;2023-04-25T07:37:33;13.80;1.00
21522;DHT22;10922;45.572;10.002;2023-04-25T07:39:59;13.90;1.00
21522;DHT22;10922;45.572;10.002;2023-04-25T07:42:24;14.00;1.00
21522;DHT22;10922;45.572;10.002;2023-04-25T07:44:50;14.20;1.00
21522;DHT22;10922;45.572;10.002;2023-04-25T07:47:17;14.00;1.00
21522;DHT22;10922;45.572;10.002;2023-04-25T07:49:44;14.00;1.00
21522;DHT22;10922;45.572;10.002;2023-04-25T07:52:11;14.20;1.00
21522;DHT22;10922;45.572;10.002;2023-04-25T07:54:37;14.10;1.00
21522;DHT22;10922;45.572;10.002;2023-04-25T07:57:03;14.40;1.00
21522;DHT22;10922;45.572;10.002;2023-04-25T07:59:28;14.40;1.00
21522;DHT22;10922;45.572;10.002;2023-04-25T08:01:54;14.40;1.00
21522;DHT22;10922;45.572;10.002;2023-04-25T08:04:20;14.40;1.00
21522;DHT22;10922;45.572;10.002;2023-04-25T08:06:46;14.60;1.00
21522;DHT22;10922;45.572;10.002;2023-04-25T08:09:11;14.50;1.00
21522;DHT22;10922;45.572;10.002;2023-04-25T08:11:37;14.50;99.90
21522;DHT22;10922;45.572;10.002;2023-04-25T08:14:03;14.30;1.00
21522;DHT22;10922;45.572;10.002;2023-04-25T08:16:28;14.30;1.00
21522;DHT22;10922;45.572;10.002;2023-04-25T08:18:54;14.60;1.00
21522;DHT22;10922;45.572;10.002;2023-04-25T08:21:20;14.60;99.90
21522;DHT22;10922;45.572;10.002;2023-04-25T08:23:45;14.70;99.90
21522;DHT22;10922;45.572;10.002;2023-04-25T08:26:11;14.60;99.90
21522;DHT22;10922;45.572;10.002;2023-04-25T08:28:37;14.60;1.00
21522;DHT22;10922;45.572;10.002;2023-04-25T08:31:03;14.70;99.90
21522;DHT22;10922;45.572;10.002;2023-04-25T08:33:28;14.60;99.90
21522;DHT22;10922;45.572;10.002;2023-04-25T08:35:55;14.90;99.90
21522;DHT22;10922;45.572;10.002;2023-04-25T08:38:21;15.10;1.00
21522;DHT22;10922;45.572;10.002;2023-04-25T08:40:49;15.30;99.90
21522;DHT22;10922;45.572;10.002;2023-04-25T08:43:18;15.20;99.90
21522;DHT22;10922;45.572;10.002;2023-04-25T08:45:44;15.80;99.90
21522;DHT22;10922;45.572;10.002;2023-04-25T08:48:12;15.60;99.90
21522;DHT22;10922;45.572;10.002;2023-04-25T08:50:49;15.80;99.90
21522;DHT22;10922;45.572;10.002;2023-04-25T08:53:16;16.00;99.90
21522;DHT22;10922;45.572;10.002;2023-04-25T08:55:45;16.20;99.90
21522;DHT22;10922;45.572;10.002;2023-04-25T08:58:12;16.10;99.90
21522;DHT22;10922;45.572;10.002;2023-04-25T09:00:38;16.50;99.90
21522;DHT22;10922;45.572;10.002;2023-04-25T09:03:05;16.80;99.90
21522;DHT22;10922;45.572;10.002;2023-04-25T09:05:32;16.40;99.90
21522;DHT22;10922;45.572;10.002;2023-04-25T09:07:58;16.20;99.90
21522;DHT22;10922;45.572;10.002;2023-04-25T09:10:24;15.80;99.90
21522;DHT22;10922;45.572;10.002;2023-04-25T09:13:12;15.90;99.90
21522;DHT22;10922;45.572;10.002;2023-04-25T09:15:48;16.00;99.90
21522;DHT22;10922;45.572;10.002;2023-04-25T09:18:25;15.70;99.90
21522;DHT22;10922;45.572;10.002;2023-04-25T09:20:52;16.10;99.90
21522;DHT22;10922;45.572;10.002;2023-04-25T09:23:20;16.20;99.90
21522;DHT22;10922;45.572;10.002;2023-04-25T09:25:51;16.20;99.90
21522;DHT22;10922;45.572;10.002;2023-04-25T09:28:23;16.20;99.90
21522;DHT22;10922;45.572;10.002;2023-04-25T09:30:55;16.30;99.90
21522;DHT22;10922;45.572;10.002;2023-04-25T09:33:30;16.70;99.90
21522;DHT22;10922;45.572;10.002;2023-04-25T09:38:33;17.30;99.90
21522;DHT22;10922;45.572;10.002;2023-04-25T09:41:05;17.90;99.90
21522;DHT22;10922;45.572;10.002;2023-04-25T09:43:31;18.20;99.90
21522;DHT22;10922;45.572;10.002;2023-04-25T09:45:56;18.20;99.90
21522;DHT22;10922;45.572;10.002;2023-04-25T09:48:27;18.30;99.90
21522;DHT22;10922;45.572;10.002;2023-04-25T09:51:10;18.70;99.90
21522;DHT22;10922;45.572;10.002;2023-04-25T09:53:40;19.20;99.90
21522;DHT22;10922;45.572;10.002;2023-04-25T09:56:09;19.70;99.90
21522;DHT22;10922;45.572;10.002;2023-04-25T09:58:36;19.20;99.90
21522;DHT22;10922;45.572;10.002;2023-04-25T10:01:04;17.60;99.90
21522;DHT22;10922;45.572;10.002;2023-04-25T10:03:32;17.80;99.90
21522;DHT22;10922;45.572;10.002;2023-04-25T10:06:02;18.40;99.90
21522;DHT22;10922;45.572;10.002;2023-04-25T10:08:36;18.20;99.90
21522;DHT22;10922;45.572;10.002;2023-04-25T10:11:06;18.00;99.90
21522;DHT22;10922;45.572;10.002;2023-04-25T10:13:34;17.40;99.90
21522;DHT22;10922;45.572;10.002;2023-04-25T10:16:02;17.90;99.90
21522;DHT22;10922;45.572;10.002;2023-04-25T10:18:29;16.90;99.90
21522;DHT22;10922;45.572;10.002;2023-04-25T10:21:01;16.40;99.90
21522;DHT22;10922;45.572;10.002;2023-04-25T10:23:27;16.40;99.90
21522;DHT22;10922;45.572;10.002;2023-04-25T10:25:54;16.80;99.90
21522;DHT22;10922;45.572;10.002;2023-04-25T10:28:21;17.10;99.90
21522;DHT22;10922;45.572;10.002;2023-04-25T10:31:01;16.80;99.90
21522;DHT22;10922;45.572;10.002;2023-04-25T10:33:35;16.90;99.90
21522;DHT22;10922;45.572;10.002;2023-04-25T10:36:15;16.90;99.90
21522;DHT22;10922;45.572;10.002;2023-04-25T10:38:43;17.00;99.90
21522;DHT22;10922;45.572;10.002;2023-04-25T10:41:10;17.00;99.90
21522;DHT22;10922;45.572;10.002;2023-04-25T10:43:42;17.30;99.90
21522;DHT22;10922;45.572;10.002;2023-04-25T10:46:17;17.60;99.90
21522;DHT22;10922;45.572;10.002;2023-04-25T10:48:51;17.90;99.90
21522;DHT22;10922;45.572;10.002;2023-04-25T10:51:22;17.40;99.90
21522;DHT22;10922;45.572;10.002;2023-04-25T10:54:00;17.30;99.90
21522;DHT22;10922;45.572;10.002;2023-04-25T10:56:44;17.60;99.90
21522;DHT22;10922;45.572;10.002;2023-04-25T10:59:12;17.60;99.90
21522;DHT22;10922;45.572;10.002;2023-04-25T11:01:42;17.10;99.90
21522;DHT22;10922;45.572;10.002;2023-04-25T11:04:29;17.60;99.90
21522;DHT22;10922;45.572;10.002;2023-04-25T11:07:13;17.70;99.90
21522;DHT22;10922;45.572;10.002;2023-04-25T11:09:42;18.00;99.90
21522;DHT22;10922;45.572;10.002;2023-04-25T11:12:10;18.00;99.90
21522;DHT22;10922;45.572;10.002;2023-04-25T11:14:40;18.20;99.90
21522;DHT22;10922;45.572;10.002;2023-04-25T11:17:06;18.30;99.90
21522;DHT22;10922;45.572;10.002;2023-04-25T11:19:32;18.50;99.90
21522;DHT22;10922;45.572;10.002;2023-04-25T11:22:02;18.70;99.90
21522;DHT22;10922;45.572;10.002;2023-04-25T11:24:29;18.60;99.90
21522;DHT22;10922;45.572;10.002;2023-04-25T11:26:56;19.00;99.90
21522;DHT22;10922;45.572;10.002;2023-04-25T11:29:23;19.90;99.90
21522;DHT22;10922;45.572;10.002;2023-04-25T11:31:52;19.60;99.90
21522;DHT22;10922;45.572;10.002;2023-04-25T11:34:19;18.70;99.90
21522;DHT22;10922;45.572;10.002;2023-04-25T11:36:45;19.00;99.90
21522;DHT22;10922;45.572;10.002;2023-04-25T11:39:11;20.40;99.90
21522;DHT22;10922;45.572;10.002;2023-04-25T11:41:38;21.40;99.90
21522;DHT22;10922;45.572;10.002;2023-04-25T11:44:04;22.00;99.90
21522;DHT22;10922;45.572;10.002;2023-04-25T11:46:30;22.20;99.90
21522;DHT22;10922;45.572;10.002;2023-04-25T11:48:59;22.70;99.90
21522;DHT22;10922;45.572;10.002;2023-04-25T11:51:25;22.40;99.90
21522;DHT22;10922;45.572;10.002;2023-04-25T11:53:51;21.30;99.90
21522;DHT22;10922;45.572;10.002;2023-04-25T11:56:17;20.90;99.90
21522;DHT22;10922;45.572;10.002;2023-04-25T11:59:01;20.90;99.90
21522;DHT22;10922;45.572;10.002;2023-04-25T12:01:34;19.90;99.90
21522;DHT22;10922;45.572;10.002;2023-04-25T12:04:14;18.60;99.90
21522;DHT22;10922;45.572;10.002;2023-04-25T12:06:42;19.10;99.90
21522;DHT22;10922;45.572;10.002;2023-04-25T12:09:12;19.10;99.90
21522;DHT22;10922;45.572;10.002;2023-04-25T12:11:46;19.60;99.90
21522;DHT22;10922;45.572;10.002;2023-04-25T12:14:30;19.40;99.90
21522;DHT22;10922;45.572;10.002;2023-04-25T12:16:58;18.70;99.90
21522;DHT22;10922;45.572;10.002;2023-04-25T12:19:24;18.50;99.90
21522;DHT22;10922;45.572;10.002;2023-04-25T12:21:50;18.30;99.90
21522;DHT22;10922;45.572;10.002;2023-04-25T12:24:17;17.90;99.90
21522;DHT22;10922;45.572;10.002;2023-04-25T12:26:52;17.30;99.90
21522;DHT22;10922;45.572;10.002;2023-04-25T12:29:23;16.80;99.90
21522;DHT22;10922;45.572;10.002;2023-04-25T12:31:51;16.80;99.90
21522;DHT22;10922;45.572;10.002;2023-04-25T12:34:18;16.60;99.90
21522;DHT22;10922;45.572;10.002;2023-04-25T12:36:43;16.60;99.90
21522;DHT22;10922;45.572;10.002;2023-04-25T12:39:21;16.50;99.90
21522;DHT22;10922;45.572;10.002;2023-04-25T12:41:50;16.40;99.90
21522;DHT22;10922;45.572;10.002;2023-04-25T12:44:16;16.20;99.90
21522;DHT22;10922;45.572;10.002;2023-04-25T12:46:42;16.20;99.90
21522;DHT22;10922;45.572;10.002;2023-04-25T12:49:08;16.10;99.90
21522;DHT22;10922;45.572;10.002;2023-04-25T12:51:35;16.10;99.90
21522;DHT22;10922;45.572;10.002;2023-04-25T12:54:02;16.20;99.90
21522;DHT22;10922;45.572;10.002;2023-04-25T12:56:28;16.30;99.90
21522;DHT22;10922;45.572;10.002;2023-04-25T12:58:54;16.20;99.90
21522;DHT22;10922;45.572;10.002;2023-04-25T13:01:20;16.30;99.90
21522;DHT22;10922;45.572;10.002;2023-04-25T13:03:46;16.20;99.90
21522;DHT22;10922;45.572;10.002;2023-04-25T13:06:13;16.30;99.90
21522;DHT22;10922;45.572;10.002;2023-04-25T13:08:39;16.40;99.90
21522;DHT22;10922;45.572;10.002;2023-04-25T13:11:05;16.60;99.90
21522;DHT22;10922;45.572;10.002;2023-04-25T13:13:31;16.90;99.90
21522;DHT22;10922;45.572;10.002;2023-04-25T13:15:58;17.20;99.90
21522;DHT22;10922;45.572;10.002;2023-04-25T13:18:23;17.90;99.90
21522;DHT22;10922;45.572;10.002;2023-04-25T13:20:52;19.20;99.90
21522;DHT22;10922;45.572;10.002;2023-04-25T13:23:19;19.60;99.90
21522;DHT22;10922;45.572;10.002;2023-04-25T13:25:45;19.30;99.90
21522;DHT22;10922;45.572;10.002;2023-04-25T13:28:11;18.20;99.90
21522;DHT22;10922;45.572;10.002;2023-04-25T13:30:37;18.10;99.90
21522;DHT22;10922;45.572;10.002;2023-04-25T13:33:03;18.30;99.90
21522;DHT22;10922;45.572;10.002;2023-04-25T13:35:30;22.00;99.90
21522;DHT22;10922;45.572;10.002;2023-04-25T13:37:56;28.00;99.90
21522;DHT22;10922;45.572;10.002;2023-04-25T13:40:21;31.10;99.90
21522;DHT22;10922;45.572;10.002;2023-04-25T13:42:47;33.50;99.90
21522;DHT22;10922;45.572;10.002;2023-04-25T13:45:13;34.50;99.90
21522;DHT22;10922;45.572;10.002;2023-04-25T13:47:39;35.00;99.90
21522;DHT22;10922;45.572;10.002;2023-04-25T13:50:05;35.90;99.90
21522;DHT22;10922;45.572;10.002;2023-04-25T13:52:31;35.30;99.90
21522;DHT22;10922;45.572;10.002;2023-04-25T13:54:57;35.60;99.90
21522;DHT22;10922;45.572;10.002;2023-04-25T13:57:23;35.80;99.90
21522;DHT22;10922;45.572;10.002;2023-04-25T13:59:49;38.40;99.90
21522;DHT22;10922;45.572;10.002;2023-04-25T14:02:15;34.10;99.90
21522;DHT22;10922;45.572;10.002;2023-04-25T14:04:42;34.90;99.90
21522;DHT22;10922;45.572;10.002;2023-04-25T14:07:08;37.40;99.90
21522;DHT22;10922;45.572;10.002;2023-04-25T14:09:34;39.20;99.90
21522;DHT22;10922;45.572;10.002;2023-04-25T14:12:00;37.30;99.90
21522;DHT22;10922;45.572;10.002;2023-04-25T14:14:25;38.40;99.90
21522;DHT22;10922;45.572;10.002;2023-04-25T14:16:51;38.90;99.90
21522;DHT22;10922;45.572;10.002;2023-04-25T14:19:20;38.10;99.90
21522;DHT22;10922;45.572;10.002;2023-04-25T14:21:46;36.70;99.90
21522;DHT22;10922;45.572;10.002;2023-04-25T14:24:13;38.30;99.90
21522;DHT22;10922;45.572;10.002;2023-04-25T14:26:39;34.00;99.90
21522;DHT22;10922;45.572;10.002;2023-04-25T14:29:06;33.00;99.90
21522;DHT22;10922;45.572;10.002;2023-04-25T14:31:33;31.10;99.90
21522;DHT22;10922;45.572;10.002;2023-04-25T14:33:59;30.60;99.90
21522;DHT22;10922;45.572;10.002;2023-04-25T14:36:25;31.30;99.90
21522;DHT22;10922;45.572;10.002;2023-04-25T14:38:52;32.50;99.90
21522;DHT22;10922;45.572;10.002;2023-04-25T14:41:18;33.50;99.90
21522;DHT22;10922;45.572;10.002;2023-04-25T14:43:43;35.10;99.90
21522;DHT22;10922;45.572;10.002;2023-04-25T14:46:10;35.10;99.90
21522;DHT22;10922;45.572;10.002;2023-04-25T14:48:36;33.80;99.90
21522;DHT22;10922;45.572;10.002;2023-04-25T14:51:02;33.00;99.90
21522;DHT22;10922;45.572;10.002;2023-04-25T14:53:28;33.10;99.90
21522;DHT22;10922;45.572;10.002;2023-04-25T14:55:54;34.30;99.90
21522;DHT22;10922;45.572;10.002;2023-04-25T14:58:19;35.20;99.90
21522;DHT22;10922;45.572;10.002;2023-04-25T15:00:46;35.80;99.90
21522;DHT22;10922;45.572;10.002;2023-04-25T15:03:12;34.90;99.90
21522;DHT22;10922;45.572;10.002;2023-04-25T15:05:42;35.00;99.90
21522;DHT22;10922;45.572;10.002;2023-04-25T15:08:08;35.20;99.90
21522;DHT22;10922;45.572;10.002;2023-04-25T15:10:34;36.20;99.90
21522;DHT22;10922;45.572;10.002;2023-04-25T15:12:59;35.50;99.90
21522;DHT22;10922;45.572;10.002;2023-04-25T15:15:26;35.60;99.90
21522;DHT22;10922;45.572;10.002;2023-04-25T15:17:52;34.60;99.90
21522;DHT22;10922;45.572;10.002;2023-04-25T15:20:19;34.10;99.90
21522;DHT22;10922;45.572;10.002;2023-04-25T15:22:44;34.70;99.90
21522;DHT22;10922;45.572;10.002;2023-04-25T15:25:11;36.00;99.90
21522;DHT22;10922;45.572;10.002;2023-04-25T15:27:38;33.90;99.90